createdAt,value
2019-01-14T00:02:05.557Z,7.30
2019-01-14T00:04:35.914Z,7.30
2019-01-14T00:07:06.274Z,7.30
2019-01-14T00:09:38.832Z,7.40
2019-01-14T00:12:09.229Z,7.30
2019-01-14T00:14:39.719Z,7.10
2019-01-14T00:17:10.035Z,7.10
2019-01-14T00:19:40.417Z,7.00
2019-01-14T00:22:10.760Z,6.80
2019-01-14T00:24:41.108Z,6.70
2019-01-14T00:27:11.369Z,6.70
2019-01-14T00:29:41.740Z,6.50
2019-01-14T00:32:12.270Z,6.50
2019-01-14T00:34:42.862Z,6.50
2019-01-14T00:37:13.166Z,6.40
2019-01-14T00:39:43.478Z,6.50
2019-01-14T00:42:13.696Z,6.50
2019-01-14T00:44:44.084Z,6.60
2019-01-14T00:47:14.478Z,6.70
2019-01-14T00:49:44.863Z,6.80
2019-01-14T00:52:15.142Z,7.00
2019-01-14T00:54:45.427Z,7.20
2019-01-14T00:57:15.732Z,7.40
2019-01-14T00:59:46.038Z,7.40
2019-01-14T01:02:16.417Z,7.30
2019-01-14T01:04:47.745Z,7.10
2019-01-14T01:07:18.093Z,6.90
2019-01-14T01:09:48.669Z,6.80
2019-01-14T01:12:19.070Z,6.80
2019-01-14T01:14:49.427Z,6.70
2019-01-14T01:17:19.806Z,6.70
2019-01-14T01:19:49.997Z,6.70
2019-01-14T01:22:20.306Z,6.70
2019-01-14T01:24:50.818Z,6.60
2019-01-14T01:27:21.155Z,6.70
2019-01-14T01:29:51.437Z,6.80
2019-01-14T01:32:21.683Z,6.70
2019-01-14T01:34:51.947Z,6.60
2019-01-14T01:37:22.286Z,6.60
2019-01-14T01:39:55.287Z,6.60
2019-01-14T01:42:25.539Z,6.60
2019-01-14T01:44:57.036Z,6.50
2019-01-14T01:47:27.313Z,6.50
2019-01-14T01:49:57.558Z,6.50
2019-01-14T01:52:28.045Z,6.50
2019-01-14T01:54:58.435Z,6.50
2019-01-14T01:57:28.791Z,6.50
2019-01-14T01:59:59.020Z,6.50
2019-01-14T02:02:29.404Z,6.50
2019-01-14T02:04:59.727Z,6.50
2019-01-14T02:07:31.642Z,6.50
2019-01-14T02:10:01.880Z,6.50
2019-01-14T02:12:33.216Z,6.50
2019-01-14T02:15:03.648Z,6.60
2019-01-14T02:17:34.042Z,6.60
2019-01-14T02:20:05.142Z,6.70
2019-01-14T02:22:36.759Z,6.70
2019-01-14T02:25:07.971Z,6.70
2019-01-14T02:27:39.448Z,6.80
2019-01-14T02:30:13.660Z,6.90
2019-01-14T02:32:44.395Z,6.90
2019-01-14T02:35:14.790Z,6.90
2019-01-14T02:37:45.063Z,6.90
2019-01-14T02:40:19.017Z,6.80
2019-01-14T02:42:49.520Z,6.80
2019-01-14T02:45:19.864Z,6.80
2019-01-14T02:47:50.148Z,6.90
2019-01-14T02:50:20.455Z,6.90
2019-01-14T02:52:50.803Z,6.80
2019-01-14T02:55:21.256Z,6.80
2019-01-14T02:57:51.588Z,6.80
2019-01-14T03:00:27.643Z,6.80
2019-01-14T03:02:57.929Z,6.70
2019-01-14T03:05:29.409Z,6.70
2019-01-14T03:07:59.711Z,6.70
2019-01-14T03:10:30.207Z,6.70
2019-01-14T03:13:00.471Z,6.70
2019-01-14T03:15:30.846Z,6.70
2019-01-14T03:18:01.177Z,6.70
2019-01-14T03:20:31.504Z,6.60
2019-01-14T03:23:01.839Z,6.60
2019-01-14T03:25:32.569Z,6.60
2019-01-14T03:28:02.981Z,6.60
2019-01-14T03:30:33.242Z,6.60
2019-01-14T03:33:03.657Z,6.60
2019-01-14T03:35:33.998Z,6.60
2019-01-14T03:38:04.465Z,6.60
2019-01-14T03:40:34.833Z,6.50
2019-01-14T03:43:05.393Z,6.40
2019-01-14T03:45:35.653Z,6.30
2019-01-14T03:48:05.967Z,6.20
2019-01-14T03:50:36.180Z,6.20
2019-01-14T03:53:06.640Z,6.20
2019-01-14T03:55:37.009Z,6.10
2019-01-14T03:58:07.317Z,6.10
2019-01-14T04:00:37.617Z,6.10
2019-01-14T04:03:08.057Z,6.10
2019-01-14T04:05:39.152Z,6.10
2019-01-14T04:08:09.545Z,6.00
2019-01-14T04:10:39.935Z,6.00
2019-01-14T04:13:10.279Z,6.10
2019-01-14T04:15:40.637Z,6.00
2019-01-14T04:18:11.087Z,6.00
2019-01-14T04:20:41.314Z,6.00
2019-01-14T04:23:11.554Z,6.00
2019-01-14T04:25:41.829Z,6.00
2019-01-14T04:28:12.077Z,5.90
2019-01-14T04:30:42.416Z,5.90
2019-01-14T04:33:12.682Z,5.90
2019-01-14T04:35:43.644Z,5.90
2019-01-14T04:38:14.034Z,5.90
2019-01-14T04:40:44.428Z,5.90
2019-01-14T04:43:14.718Z,5.90
2019-01-14T04:45:44.963Z,6.00
2019-01-14T04:48:15.220Z,6.00
2019-01-14T04:50:46.130Z,6.00
2019-01-14T04:53:16.418Z,6.00
2019-01-14T04:55:46.755Z,6.00
2019-01-14T04:58:17.132Z,6.00
2019-01-14T05:00:47.542Z,6.00
2019-01-14T05:03:18.057Z,6.10
2019-01-14T05:05:48.500Z,6.10
2019-01-14T05:08:18.841Z,6.10
2019-01-14T05:10:49.158Z,6.10
2019-01-14T05:13:19.480Z,6.00
2019-01-14T05:15:50.115Z,6.00
2019-01-14T05:18:20.510Z,6.00
2019-01-14T05:20:50.834Z,6.00
2019-01-14T05:23:21.260Z,6.00
2019-01-14T05:25:51.660Z,6.00
2019-01-14T05:28:22.526Z,5.90
2019-01-14T05:30:52.891Z,5.90
2019-01-14T05:33:23.223Z,5.90
2019-01-14T05:35:53.566Z,6.00
2019-01-14T05:38:23.899Z,5.80
2019-01-14T05:40:54.284Z,5.70
2019-01-14T05:43:25.449Z,5.70
2019-01-14T05:45:55.942Z,5.50
2019-01-14T05:48:26.310Z,5.50
2019-01-14T05:50:56.804Z,5.50
2019-01-14T05:53:27.147Z,5.50
2019-01-14T05:55:57.516Z,5.60
2019-01-14T05:58:27.837Z,5.60
2019-01-14T06:00:58.190Z,5.60
2019-01-14T06:03:28.697Z,5.60
2019-01-14T06:05:58.928Z,5.60
2019-01-14T06:08:29.201Z,5.70
2019-01-14T06:10:59.557Z,5.70
2019-01-14T06:13:31.680Z,5.60
2019-01-14T06:16:02.120Z,5.40
2019-01-14T06:18:33.293Z,5.20
2019-01-14T06:21:03.648Z,5.20
2019-01-14T06:23:35.618Z,5.20
2019-01-14T06:26:05.987Z,5.20
2019-01-14T06:28:36.498Z,5.10
2019-01-14T06:31:06.763Z,5.10
2019-01-14T06:33:37.188Z,5.30
2019-01-14T06:36:08.509Z,5.20
2019-01-14T06:38:38.796Z,5.30
2019-01-14T06:41:09.061Z,5.20
2019-01-14T06:43:39.374Z,5.20
2019-01-14T06:46:09.690Z,5.10
2019-01-14T06:48:40.058Z,5.10
2019-01-14T06:51:10.382Z,5.10
2019-01-14T06:53:41.010Z,5.00
2019-01-14T06:56:11.304Z,4.90
2019-01-14T06:58:41.716Z,4.80
2019-01-14T07:01:15.087Z,4.70
2019-01-14T07:03:45.570Z,4.70
2019-01-14T07:06:15.824Z,4.70
2019-01-14T07:08:46.133Z,4.70
2019-01-14T07:11:16.889Z,4.60
2019-01-14T07:13:47.215Z,4.50
2019-01-14T07:16:17.519Z,4.40
2019-01-14T07:18:47.868Z,4.40
2019-01-14T07:21:18.219Z,4.40
2019-01-14T07:23:48.497Z,4.40
2019-01-14T07:26:18.745Z,4.40
2019-01-14T07:28:49.104Z,4.50
2019-01-14T07:31:19.504Z,4.60
2019-01-14T07:33:49.827Z,4.60
2019-01-14T07:36:20.258Z,4.70
2019-01-14T07:38:50.679Z,5.00
2019-01-14T07:41:21.030Z,5.10
2019-01-14T07:43:51.428Z,5.10
2019-01-14T07:46:21.838Z,5.10
2019-01-14T07:48:52.176Z,5.20
2019-01-14T07:51:23.879Z,5.20
2019-01-14T07:53:54.180Z,5.20
2019-01-14T07:56:24.857Z,5.10
2019-01-14T07:58:55.355Z,5.20
2019-01-14T08:01:25.856Z,5.20
2019-01-14T08:03:56.178Z,5.20
2019-01-14T08:06:28.115Z,5.30
2019-01-14T08:08:58.554Z,5.20
2019-01-14T08:11:29.023Z,4.80
2019-01-14T08:13:59.400Z,4.60
2019-01-14T08:16:29.864Z,4.60
2019-01-14T08:19:00.360Z,4.50
2019-01-14T08:21:30.842Z,4.60
2019-01-14T08:24:01.186Z,4.60
2019-01-14T08:26:37.003Z,4.50
2019-01-14T08:29:10.065Z,4.60
2019-01-14T08:31:40.411Z,4.50
2019-01-14T08:34:12.068Z,4.50
2019-01-14T08:36:42.463Z,4.40
2019-01-14T08:39:12.827Z,4.30
2019-01-14T08:41:50.599Z,4.30
2019-01-14T08:44:23.381Z,4.20
2019-01-14T08:46:53.723Z,4.30
2019-01-14T08:49:24.097Z,4.30
2019-01-14T08:51:54.400Z,4.20
2019-01-14T08:54:25.925Z,4.30
2019-01-14T08:56:56.217Z,4.40
2019-01-14T08:59:26.669Z,4.50
2019-01-14T09:01:56.985Z,4.60
2019-01-14T09:04:32.348Z,4.70
2019-01-14T09:06:59.401Z,4.80
2019-01-14T09:09:29.834Z,4.80
2019-01-14T09:12:00.219Z,4.90
2019-01-14T09:14:30.603Z,4.90
2019-01-14T09:17:00.858Z,5.00
2019-01-14T09:19:31.424Z,5.00
2019-01-14T09:22:01.794Z,5.10
2019-01-14T09:24:32.066Z,5.20
2019-01-14T09:27:02.485Z,5.20
2019-01-14T09:29:32.848Z,5.30
2019-01-14T09:32:03.465Z,5.40
2019-01-14T09:34:33.863Z,5.50
2019-01-14T09:37:04.475Z,5.50
2019-01-14T09:39:34.956Z,5.50
2019-01-14T09:42:05.339Z,5.60
2019-01-14T09:44:36.798Z,5.70
2019-01-14T09:47:07.184Z,5.80
2019-01-14T09:49:38.944Z,5.90
2019-01-14T09:52:09.337Z,5.50
2019-01-14T09:54:40.879Z,5.20
2019-01-14T09:57:11.251Z,5.10
2019-01-14T09:59:41.720Z,4.90
2019-01-14T10:02:14.205Z,4.80
2019-01-14T10:04:46.232Z,4.80
2019-01-14T10:07:16.744Z,4.90
2019-01-14T10:09:47.130Z,5.10
2019-01-14T10:12:17.529Z,5.30
2019-01-14T10:14:47.921Z,5.30
2019-01-14T10:17:19.820Z,5.20
2019-01-14T10:19:50.296Z,5.20
2019-01-14T10:22:20.798Z,5.20
2019-01-14T10:24:51.310Z,5.30
2019-01-14T10:27:21.940Z,5.40
2019-01-14T10:29:55.369Z,5.60
2019-01-14T10:32:25.643Z,5.50
2019-01-14T10:34:56.103Z,5.10
2019-01-14T10:37:26.518Z,5.00
2019-01-14T10:39:56.999Z,5.10
2019-01-14T10:42:28.070Z,5.00
2019-01-14T10:44:58.484Z,5.00
2019-01-14T10:47:28.858Z,5.10
2019-01-14T10:49:59.248Z,5.20
2019-01-14T10:52:29.714Z,5.50
2019-01-14T10:55:00.187Z,5.60
2019-01-14T10:57:30.571Z,5.70
2019-01-14T11:00:00.905Z,5.80
2019-01-14T11:02:32.008Z,5.90
2019-01-14T11:05:02.369Z,5.80
2019-01-14T11:07:33.097Z,5.90
2019-01-14T11:10:05.822Z,5.90
2019-01-14T11:12:37.883Z,5.90
2019-01-14T11:15:12.265Z,5.80
2019-01-14T11:17:42.725Z,6.00
2019-01-14T11:20:16.394Z,6.20
2019-01-14T11:22:47.030Z,6.20
2019-01-14T11:25:17.910Z,5.30
2019-01-14T11:27:48.895Z,4.60
2019-01-14T11:30:21.975Z,4.50
2019-01-14T11:32:52.387Z,4.50
2019-01-14T11:35:22.878Z,4.50
2019-01-14T11:37:53.274Z,4.60
2019-01-14T11:40:29.535Z,4.50
2019-01-14T11:43:00.064Z,4.60
2019-01-14T11:45:30.365Z,4.70
2019-01-14T11:48:03.058Z,4.90
2019-01-14T11:50:33.840Z,5.10
2019-01-14T11:53:04.426Z,5.50
2019-01-14T11:55:34.785Z,5.70
2019-01-14T11:58:05.311Z,5.80
2019-01-14T12:00:37.300Z,5.80
2019-01-14T12:03:08.688Z,5.90
2019-01-14T12:05:39.248Z,5.80
2019-01-14T12:08:11.136Z,5.70
2019-01-14T12:10:41.579Z,5.60
2019-01-14T12:13:11.960Z,5.60
2019-01-14T12:15:42.959Z,5.80
2019-01-14T12:18:13.479Z,5.90
2019-01-14T12:20:43.873Z,5.90
2019-01-14T12:23:14.469Z,5.50
2019-01-14T12:25:44.901Z,5.20
2019-01-14T12:28:15.777Z,4.80
2019-01-14T12:30:46.162Z,4.80
2019-01-14T12:33:16.567Z,4.70
2019-01-14T12:35:47.003Z,4.70
2019-01-14T12:38:17.493Z,4.60
2019-01-14T12:40:47.977Z,4.70
2019-01-14T12:43:18.329Z,4.70
2019-01-14T12:45:48.709Z,4.90
2019-01-14T12:48:19.076Z,5.10
2019-01-14T12:50:49.651Z,5.30
2019-01-14T12:53:19.993Z,5.50
2019-01-14T12:55:50.359Z,5.70
2019-01-14T12:58:20.705Z,5.90
2019-01-14T13:00:50.995Z,5.90
2019-01-14T13:03:21.335Z,5.90
2019-01-14T13:05:51.912Z,6.00
2019-01-14T13:08:22.305Z,6.10
2019-01-14T13:10:53.510Z,6.10
2019-01-14T13:13:23.867Z,6.20
2019-01-14T13:15:54.143Z,6.20
2019-01-14T13:18:24.558Z,6.20
2019-01-14T13:20:54.948Z,6.30
2019-01-14T13:23:32.384Z,6.20
2019-01-14T13:26:02.823Z,6.30
2019-01-14T13:28:34.301Z,6.40
2019-01-14T13:31:04.595Z,6.40
2019-01-14T13:33:34.921Z,6.40
2019-01-14T13:36:06.736Z,6.60
2019-01-14T13:38:37.026Z,6.80
2019-01-14T13:41:07.539Z,6.70
2019-01-14T13:43:38.931Z,6.10
2019-01-14T13:46:09.295Z,5.80
2019-01-14T13:48:39.703Z,5.70
2019-01-14T13:51:10.023Z,5.60
2019-01-14T13:53:40.373Z,5.90
2019-01-14T13:56:10.807Z,6.00
2019-01-14T13:58:41.071Z,5.80
2019-01-14T14:01:11.424Z,5.80
2019-01-14T14:03:41.734Z,5.80
2019-01-14T14:06:14.355Z,5.80
2019-01-14T14:08:46.284Z,5.80
2019-01-14T14:11:16.679Z,5.90
2019-01-14T14:13:47.164Z,6.00
2019-01-14T14:16:17.570Z,6.00
2019-01-14T14:18:47.926Z,6.10
2019-01-14T14:21:18.332Z,6.10
2019-01-14T14:23:48.745Z,5.90
2019-01-14T14:26:20.749Z,5.60
2019-01-14T14:28:51.169Z,5.50
2019-01-14T14:31:21.418Z,5.40
2019-01-14T14:33:51.851Z,5.40
2019-01-14T14:36:22.146Z,5.40
2019-01-14T14:38:52.469Z,5.50
2019-01-14T14:41:22.718Z,5.50
2019-01-14T14:43:53.557Z,5.40
2019-01-14T14:46:23.783Z,5.40
2019-01-14T14:48:54.076Z,5.30
2019-01-14T14:51:24.427Z,5.20
2019-01-14T14:53:54.757Z,5.20
2019-01-14T14:56:25.145Z,5.10
2019-01-14T14:58:55.413Z,5.00
2019-01-14T15:01:25.705Z,5.00
2019-01-14T15:03:55.993Z,4.90
2019-01-14T15:06:26.291Z,4.90
2019-01-14T15:08:56.833Z,4.90
2019-01-14T15:11:27.071Z,4.90
2019-01-14T15:13:57.369Z,4.90
2019-01-14T15:16:27.681Z,4.90
2019-01-14T15:18:59.791Z,4.90
2019-01-14T15:21:30.143Z,4.80
2019-01-14T15:24:00.517Z,4.80
2019-01-14T15:26:30.863Z,4.80
2019-01-14T15:29:01.250Z,4.80
2019-01-14T15:31:31.553Z,4.90
2019-01-14T15:34:01.983Z,4.90
2019-01-14T15:36:32.321Z,4.90
2019-01-14T15:39:04.174Z,4.90
2019-01-14T15:41:35.612Z,5.00
2019-01-14T15:44:08.748Z,5.10
2019-01-14T15:46:41.712Z,5.10
2019-01-14T15:49:12.009Z,5.10
2019-01-14T15:51:42.315Z,5.20
2019-01-14T15:54:12.661Z,5.30
2019-01-14T15:56:43.005Z,5.30
2019-01-14T15:59:13.431Z,5.20
2019-01-14T16:01:43.725Z,5.20
2019-01-14T16:04:14.446Z,5.10
2019-01-14T16:06:44.883Z,5.10
2019-01-14T16:09:16.796Z,5.00
2019-01-14T16:11:47.237Z,5.10
2019-01-14T16:14:17.705Z,5.10
2019-01-14T16:16:48.023Z,5.10
2019-01-14T16:19:18.369Z,5.10
2019-01-14T16:21:48.783Z,5.00
2019-01-14T16:24:19.163Z,5.00
2019-01-14T16:26:49.601Z,5.00
2019-01-14T16:29:20.012Z,4.90
2019-01-14T16:31:51.859Z,4.90
2019-01-14T16:34:22.167Z,4.90
2019-01-14T16:36:52.489Z,4.90
2019-01-14T16:39:22.861Z,4.70
2019-01-14T16:41:53.202Z,4.60
2019-01-14T16:44:23.539Z,4.50
2019-01-14T16:46:54.070Z,4.50
2019-01-14T16:49:24.622Z,4.50
2019-01-14T16:51:57.128Z,4.50
2019-01-14T16:54:27.634Z,4.50
2019-01-14T16:56:58.048Z,4.50
2019-01-14T16:59:28.386Z,4.50
2019-01-14T17:01:58.811Z,4.50
2019-01-14T17:04:29.200Z,4.40
2019-01-14T17:06:59.616Z,4.40
2019-01-14T17:09:30.061Z,4.30
2019-01-14T17:12:00.632Z,4.30
2019-01-14T17:14:32.700Z,4.20
2019-01-14T17:17:03.085Z,4.20
2019-01-14T17:19:34.208Z,4.10
2019-01-14T17:22:04.517Z,4.10
2019-01-14T17:24:34.897Z,4.10
2019-01-14T17:27:05.404Z,4.00
2019-01-14T17:29:35.733Z,4.20
2019-01-14T17:32:06.185Z,4.20
2019-01-14T17:34:36.630Z,4.20
2019-01-14T17:37:07.083Z,4.40
2019-01-14T17:39:38.813Z,4.40
2019-01-14T17:42:09.746Z,4.50
2019-01-14T17:44:40.171Z,4.60
2019-01-14T17:47:12.069Z,4.70
2019-01-14T17:49:45.624Z,4.70
2019-01-14T17:52:16.109Z,4.80
2019-01-14T17:54:46.537Z,4.90
2019-01-14T17:57:17.041Z,5.00
2019-01-14T17:59:47.447Z,5.10
2019-01-14T18:02:17.979Z,5.00
2019-01-14T18:04:48.625Z,5.10
2019-01-14T18:07:19.964Z,5.10
2019-01-14T18:09:50.486Z,5.10
2019-01-14T18:12:20.793Z,5.10
2019-01-14T18:14:51.260Z,5.10
2019-01-14T18:17:21.640Z,5.10
2019-01-14T18:19:51.958Z,5.00
2019-01-14T18:22:22.332Z,5.00
2019-01-14T18:24:52.714Z,5.10
2019-01-14T18:27:23.142Z,5.10
2019-01-14T18:29:53.569Z,5.10
2019-01-14T18:32:23.997Z,5.10
2019-01-14T18:34:54.554Z,4.90
2019-01-14T18:37:25.017Z,4.90
2019-01-14T18:39:55.343Z,4.90
2019-01-14T18:42:25.745Z,4.90
2019-01-14T18:44:56.389Z,4.80
2019-01-14T18:47:26.793Z,4.80
2019-01-14T18:49:57.237Z,4.60
2019-01-14T18:52:27.656Z,4.60
2019-01-14T18:54:58.112Z,4.50
2019-01-14T18:57:28.667Z,4.50
2019-01-14T18:59:59.167Z,4.50
2019-01-14T19:02:30.219Z,4.50
2019-01-14T19:05:00.784Z,4.50
2019-01-14T19:07:31.335Z,4.60
2019-01-14T19:10:01.738Z,4.50
2019-01-14T19:12:32.155Z,4.40
2019-01-14T19:15:02.541Z,4.30
2019-01-14T19:17:33.227Z,4.40
2019-01-14T19:20:04.731Z,4.40
2019-01-14T19:22:35.264Z,4.30
2019-01-14T19:25:06.886Z,4.40
2019-01-14T19:27:37.376Z,4.40
2019-01-14T19:30:09.952Z,4.40
2019-01-14T19:32:41.524Z,4.40
2019-01-14T19:35:11.951Z,4.40
2019-01-14T19:37:42.547Z,4.50
2019-01-14T19:40:17.801Z,4.40
2019-01-14T19:42:48.414Z,4.40
2019-01-14T19:45:21.964Z,4.50
2019-01-14T19:47:52.925Z,4.70
2019-01-14T19:50:24.576Z,4.70
2019-01-14T19:52:56.560Z,4.80
2019-01-14T19:55:27.157Z,5.00
2019-01-14T19:57:57.672Z,4.90
2019-01-14T20:00:30.149Z,5.00
2019-01-14T20:03:01.931Z,4.90
2019-01-14T20:05:35.267Z,4.80
2019-01-14T20:08:06.306Z,4.70
2019-01-14T20:10:38.254Z,4.50
2019-01-14T20:13:08.730Z,4.40
2019-01-14T20:15:39.050Z,4.30
2019-01-14T20:18:09.484Z,4.20
2019-01-14T20:20:39.972Z,4.10
2019-01-14T20:23:10.334Z,4.10
2019-01-14T20:25:40.958Z,4.00
2019-01-14T20:28:11.420Z,3.90
2019-01-14T20:30:41.838Z,3.90
2019-01-14T20:33:13.873Z,3.80
2019-01-14T20:35:44.284Z,3.70
2019-01-14T20:38:14.704Z,3.60
2019-01-14T20:40:45.017Z,3.60
2019-01-14T20:43:15.424Z,3.60
2019-01-14T20:45:45.902Z,3.60
2019-01-14T20:48:17.142Z,3.60
2019-01-14T20:50:47.507Z,3.60
2019-01-14T20:53:17.876Z,3.60
2019-01-14T20:55:48.373Z,3.70
2019-01-14T20:58:18.784Z,3.70
2019-01-14T21:00:57.653Z,3.70
2019-01-14T21:03:29.546Z,3.60
2019-01-14T21:05:59.898Z,3.50
2019-01-14T21:08:30.258Z,3.60
2019-01-14T21:11:00.617Z,3.70
2019-01-14T21:13:30.989Z,3.80
2019-01-14T21:16:02.879Z,3.80
2019-01-14T21:18:33.584Z,3.80
2019-01-14T21:21:04.053Z,3.70
2019-01-14T21:23:35.624Z,3.70
2019-01-14T21:26:06.123Z,3.70
2019-01-14T21:28:36.477Z,3.70
2019-01-14T21:31:06.787Z,3.80
2019-01-14T21:33:38.666Z,3.90
2019-01-14T21:36:09.117Z,4.00
2019-01-14T21:38:39.457Z,4.00
2019-01-14T21:41:09.755Z,4.00
2019-01-14T21:43:40.014Z,4.00
2019-01-14T21:46:10.312Z,4.10
2019-01-14T21:48:40.576Z,4.10
2019-01-14T21:51:10.921Z,4.00
2019-01-14T21:53:41.147Z,4.00
2019-01-14T21:56:11.399Z,3.90
2019-01-14T21:58:41.744Z,3.90
2019-01-14T22:01:12.056Z,3.90
2019-01-14T22:03:42.351Z,3.90
2019-01-14T22:06:12.640Z,3.80
2019-01-14T22:08:42.954Z,3.80
2019-01-14T22:11:16.388Z,3.60
2019-01-14T22:13:46.689Z,3.60
2019-01-14T22:16:17.964Z,3.60
2019-01-14T22:18:48.500Z,3.50
2019-01-14T22:21:18.745Z,3.40
2019-01-14T22:23:49.037Z,3.40
2019-01-14T22:26:19.365Z,3.50
2019-01-14T22:28:49.668Z,3.40
2019-01-14T22:31:20.027Z,3.40
2019-01-14T22:33:50.443Z,3.40
2019-01-14T22:36:20.730Z,3.40
2019-01-14T22:38:51.030Z,3.40
2019-01-14T22:41:21.316Z,3.50
2019-01-14T22:43:51.577Z,3.60
2019-01-14T22:46:21.924Z,3.60
2019-01-14T22:48:52.268Z,3.60
2019-01-14T22:51:22.609Z,3.60
2019-01-14T22:53:52.897Z,3.60
2019-01-14T22:56:23.213Z,3.60
2019-01-14T22:58:53.551Z,3.60
2019-01-14T23:01:39.638Z,3.60
2019-01-14T23:04:10.201Z,3.60
2019-01-14T23:06:40.639Z,3.60
2019-01-14T23:09:11.053Z,3.60
2019-01-14T23:11:41.437Z,3.60
2019-01-14T23:14:11.997Z,3.70
2019-01-14T23:16:42.468Z,3.60
2019-01-14T23:19:12.761Z,3.60
2019-01-14T23:21:43.147Z,3.60
2019-01-14T23:24:13.515Z,3.60
2019-01-14T23:26:44.953Z,3.70
2019-01-14T23:29:15.604Z,3.70
2019-01-14T23:31:45.982Z,3.90
2019-01-14T23:34:16.308Z,3.90
2019-01-14T23:36:46.630Z,3.90
2019-01-14T23:39:16.917Z,3.90
2019-01-14T23:41:47.211Z,4.00
2019-01-14T23:44:17.572Z,4.00
2019-01-14T23:46:48.524Z,4.00
2019-01-14T23:49:19.081Z,3.90
2019-01-14T23:51:49.333Z,3.90
2019-01-14T23:54:19.764Z,3.80
2019-01-14T23:56:50.076Z,3.80
2019-01-14T23:59:21.356Z,3.90
